ICTK1: Arkansas R At Wichita, KS

Data processed at Sat May 25 2019 23:50


All information presented herein is the property of the government of the United States of America and may be revised or deleted at any time without prior notice.
Dissemination of this information without the expressed written consent of the Public Affairs Office, Tulsa District U.S. Army Corps of Engineers is strictly prohibited.
These data are gathered electronically and, as presented, have not undergone any form of quality control. These data are not guaranteed to be valid or correct.
Go to home page.
Go to station list.
Go to home page.

Upstream stations:

Downstream station:
Previous Day
Next Day
Current Day
    
SHEF ID:       ICTK1     ARKANSAS R AT WICHITA, KS
STATION TYPE:  
Regulating: Stage =    12.00, Flow =    10627

               PRECIP     STAGE  RIV-FLOW  BAT-LOAD
                   in        ft       cfs      volt
              Ccp-Rev   Ccp-Rev   Ccp-Rev   Ccp-Rev
(US/Central)
05/25 00:00      0.00     13.57     13762     12.57
05/25 01:00      0.00     13.55     13720     12.57
05/25 02:00      0.00     13.56     13741     12.57
05/25 03:00      0.00     13.60     13825     12.49
05/25 04:00      0.00     13.66     13952     12.49
05/25 05:00      0.00     13.67     13973     12.49
05/25 06:00      0.00     13.64     13910     12.49
05/25 07:00      0.00     13.53     13678     12.49
05/25 08:00      0.00     13.50     13615     12.89
05/25 09:00      0.00     13.44     13490     12.89
05/25 10:00      0.00     13.37     13344     13.53
05/25 11:00      0.00     13.27     13137     13.76
05/25 12:00      0.00     13.31     13219     13.76
05/25 13:00      0.00     13.25     13095     13.68
05/25 14:00      0.00     13.15     12890     13.68
05/25 15:00      0.00     13.11     12808     13.60
05/25 16:00      0.00     13.04     12666     13.68
05/25 17:00      0.00     13.01     12605      ----
05/25 18:00      0.00     13.00     12584     13.44
05/25 19:00      0.00     12.95     12483     12.97
05/25 20:00      0.00     12.85     12282     12.65
05/25 21:00      0.29     12.87     12322     12.65
05/25 22:00      0.48     13.20     12993     12.65
05/25 23:00      0.13     13.13     12849     12.65